createdAt,value
2022-12-11T00:00:27.686Z,40.67
2022-12-11T00:02:54.886Z,43.75
2022-12-11T00:05:21.860Z,42.08
2022-12-11T00:07:48.777Z,44.28
2022-12-11T00:10:15.877Z,39.15
2022-12-11T00:12:42.726Z,41.75
2022-12-11T00:15:10.537Z,40.00
2022-12-11T00:17:38.440Z,37.22
2022-12-11T00:20:06.202Z,41.92
2022-12-11T00:22:33.186Z,41.85
2022-12-11T00:25:00.133Z,43.17
2022-12-11T00:27:27.261Z,40.97
2022-12-11T00:29:54.154Z,42.42
2022-12-11T00:32:21.054Z,42.83
2022-12-11T00:34:47.856Z,43.28
2022-12-11T00:37:14.804Z,48.25
2022-12-11T00:39:41.830Z,44.35
2022-12-11T00:42:09.436Z,43.30
2022-12-11T00:44:36.596Z,46.88
2022-12-11T00:47:04.220Z,45.75
2022-12-11T00:49:31.328Z,41.40
2022-12-11T00:51:58.370Z,42.70
2022-12-11T00:54:25.299Z,48.08
2022-12-11T00:56:52.482Z,42.30
2022-12-11T00:59:20.171Z,43.15
2022-12-11T01:01:47.108Z,38.85
2022-12-11T01:04:14.077Z,42.17
2022-12-11T01:06:40.978Z,40.92
2022-12-11T01:09:26.259Z,42.00
2022-12-11T01:11:53.195Z,44.92
2022-12-11T01:14:20.212Z,40.35
2022-12-11T01:16:47.179Z,44.22
2022-12-11T01:19:14.191Z,41.33
2022-12-11T01:21:41.191Z,44.95
2022-12-11T01:24:08.194Z,40.85
2022-12-11T01:26:35.278Z,43.75
2022-12-11T01:29:02.455Z,41.40
2022-12-11T01:31:30.081Z,44.85
2022-12-11T01:33:57.034Z,42.75
2022-12-11T01:36:24.752Z,42.40
2022-12-11T01:38:51.807Z,37.42
2022-12-11T01:41:19.057Z,46.22
2022-12-11T01:44:28.328Z,38.75
2022-12-11T01:46:55.244Z,44.08
2022-12-11T01:49:26.731Z,36.67
2022-12-11T01:52:06.139Z,38.33
2022-12-11T01:54:34.730Z,38.90
2022-12-11T01:57:07.369Z,37.40
2022-12-11T01:59:40.220Z,44.65
2022-12-11T02:02:26.130Z,42.03
2022-12-11T02:04:53.087Z,37.08
2022-12-11T02:07:20.063Z,38.08
2022-12-11T02:09:48.529Z,37.80
2022-12-11T02:12:46.212Z,38.15
2022-12-11T02:15:37.886Z,37.58
2022-12-11T02:18:21.237Z,35.53
2022-12-11T02:21:17.121Z,35.35
2022-12-11T02:24:57.770Z,36.92
2022-12-11T02:27:38.927Z,35.10
2022-12-11T02:30:14.423Z,34.60
2022-12-11T02:33:05.651Z,37.42
2022-12-11T02:35:42.124Z,37.05
2022-12-11T02:38:27.125Z,32.58
2022-12-11T02:40:57.859Z,36.05
2022-12-11T02:43:27.524Z,36.22
2022-12-11T02:45:56.285Z,36.83
2022-12-11T02:48:25.019Z,33.00
2022-12-11T02:50:58.055Z,38.35
2022-12-11T02:53:29.761Z,34.20
2022-12-11T02:56:16.803Z,31.08
2022-12-11T02:58:58.377Z,32.60
2022-12-11T03:01:27.072Z,32.92
2022-12-11T03:03:55.876Z,33.53
2022-12-11T03:06:32.006Z,31.05
2022-12-11T03:08:58.973Z,32.45
2022-12-11T03:11:25.957Z,33.08
2022-12-11T03:13:54.093Z,30.55
2022-12-11T03:16:39.576Z,32.95
2022-12-11T03:19:36.127Z,32.22
2022-12-11T03:22:22.913Z,37.05
2022-12-11T03:25:02.761Z,36.22
2022-12-11T03:27:50.573Z,37.72
2022-12-11T03:30:22.398Z,46.03
2022-12-11T03:32:56.871Z,35.67
2022-12-11T03:35:44.087Z,36.80
2022-12-11T03:38:24.784Z,37.90
2022-12-11T03:40:58.207Z,37.78
2022-12-11T03:43:27.377Z,37.70
2022-12-11T03:45:55.776Z,37.35
2022-12-11T03:48:25.344Z,36.83
2022-12-11T03:50:52.982Z,35.03
2022-12-11T03:53:21.885Z,31.63
2022-12-11T03:55:51.486Z,35.35
2022-12-11T03:58:18.370Z,33.55
2022-12-11T04:00:45.282Z,34.25
2022-12-11T04:03:15.124Z,32.42
2022-12-11T04:05:46.403Z,33.58
2022-12-11T04:08:14.939Z,32.75
2022-12-11T04:10:42.397Z,35.03
2022-12-11T04:13:10.506Z,35.40
2022-12-11T04:15:39.655Z,30.80
2022-12-11T04:18:26.943Z,31.15
2022-12-11T04:21:14.450Z,36.60
2022-12-11T04:23:59.733Z,32.20
2022-12-11T04:26:27.018Z,33.55
2022-12-11T04:28:53.895Z,32.88
2022-12-11T04:31:23.048Z,37.25
2022-12-11T04:33:50.491Z,40.33
2022-12-11T04:36:17.602Z,32.97
2022-12-11T04:38:44.521Z,34.65
2022-12-11T04:41:16.005Z,33.33
2022-12-11T04:43:45.222Z,35.35
2022-12-11T04:46:24.388Z,34.78
2022-12-11T04:48:57.436Z,32.15
2022-12-11T04:51:25.404Z,41.05
2022-12-11T04:53:53.017Z,34.22
2022-12-11T04:56:20.550Z,35.67
2022-12-11T04:58:48.273Z,33.83
2022-12-11T05:01:20.110Z,33.75
2022-12-11T05:03:47.514Z,32.42
2022-12-11T05:06:14.788Z,34.42
2022-12-11T05:08:43.217Z,34.97
2022-12-11T05:11:13.540Z,32.97
2022-12-11T05:13:41.095Z,35.13
2022-12-11T05:16:12.012Z,35.50
2022-12-11T05:18:39.347Z,32.10
2022-12-11T05:21:10.177Z,33.90
2022-12-11T05:23:38.355Z,34.08
2022-12-11T05:26:16.073Z,31.45
2022-12-11T05:28:43.995Z,30.45
2022-12-11T05:31:19.268Z,30.40
2022-12-11T05:33:47.829Z,32.53
2022-12-11T05:36:31.476Z,30.30
2022-12-11T05:39:00.987Z,30.13
2022-12-11T05:41:30.940Z,31.00
2022-12-11T05:43:58.169Z,29.40
2022-12-11T05:46:28.801Z,32.38
2022-12-11T05:49:01.907Z,31.67
2022-12-11T05:51:30.301Z,31.02
2022-12-11T05:53:59.091Z,29.70
2022-12-11T05:56:33.283Z,29.73
2022-12-11T05:59:02.711Z,30.35
2022-12-11T06:01:43.133Z,27.70
2022-12-11T06:04:12.270Z,28.30
2022-12-11T06:06:40.444Z,24.30
2022-12-11T06:09:08.194Z,27.55
2022-12-11T06:11:36.085Z,28.83
2022-12-11T06:14:04.015Z,27.73
2022-12-11T06:16:31.967Z,25.70
2022-12-11T06:18:59.271Z,30.38
2022-12-11T06:21:30.198Z,27.55
2022-12-11T06:24:01.083Z,26.73
2022-12-11T06:26:29.094Z,22.90
2022-12-11T06:28:56.124Z,27.17
2022-12-11T06:31:23.262Z,26.70
2022-12-11T06:33:50.221Z,25.10
2022-12-11T06:36:21.559Z,26.52
2022-12-11T06:38:48.666Z,26.15
2022-12-11T06:41:16.622Z,25.20
2022-12-11T06:43:44.027Z,24.38
2022-12-11T06:46:17.472Z,23.50
2022-12-11T06:48:44.739Z,25.98
2022-12-11T06:51:16.432Z,28.30
2022-12-11T06:53:44.251Z,21.95
2022-12-11T06:56:15.666Z,27.50
2022-12-11T06:58:44.260Z,25.73
2022-12-11T07:01:29.841Z,23.23
2022-12-11T07:03:59.404Z,22.45
2022-12-11T07:06:29.837Z,21.50
2022-12-11T07:08:57.161Z,22.60
2022-12-11T07:11:24.653Z,22.30
2022-12-11T07:13:51.687Z,23.30
2022-12-11T07:16:19.359Z,25.88
2022-12-11T07:18:51.346Z,23.92
2022-12-11T07:21:20.462Z,24.40
2022-12-11T07:23:48.923Z,24.60
2022-12-11T07:26:19.865Z,25.23
2022-12-11T07:28:47.420Z,22.80
2022-12-11T07:31:19.921Z,24.58
2022-12-11T07:33:47.266Z,28.13
2022-12-11T07:36:16.124Z,25.42
2022-12-11T07:38:43.041Z,26.67
2022-12-11T07:41:14.660Z,24.90
2022-12-11T07:43:42.568Z,21.63
2022-12-11T07:46:14.604Z,31.30
2022-12-11T07:48:43.891Z,27.60
2022-12-11T07:51:19.047Z,28.67
2022-12-11T07:53:49.337Z,27.88
2022-12-11T07:56:18.411Z,24.52
2022-12-11T07:58:46.460Z,30.55
2022-12-11T08:01:21.357Z,24.77
2022-12-11T08:03:50.714Z,24.65
2022-12-11T08:06:18.361Z,25.40
2022-12-11T08:08:45.473Z,22.20
2022-12-11T08:11:14.880Z,26.70
2022-12-11T08:13:43.172Z,26.95
2022-12-11T08:16:14.079Z,25.67
2022-12-11T08:18:43.168Z,28.83
2022-12-11T08:21:23.232Z,29.45
2022-12-11T08:23:52.346Z,26.65
2022-12-11T08:26:27.279Z,26.20
2022-12-11T08:28:54.778Z,29.02
2022-12-11T08:31:22.294Z,30.05
2022-12-11T08:33:50.348Z,25.38
2022-12-11T08:36:21.077Z,23.05
2022-12-11T08:38:50.385Z,28.27
2022-12-11T08:41:27.430Z,32.85
2022-12-11T08:43:56.064Z,29.50
2022-12-11T08:46:26.870Z,24.67
2022-12-11T08:48:55.558Z,21.38
2022-12-11T08:51:26.081Z,21.35
2022-12-11T08:53:57.601Z,23.65
2022-12-11T08:56:25.676Z,22.35
2022-12-11T08:58:53.313Z,24.10
2022-12-11T09:01:26.858Z,22.77
2022-12-11T09:03:56.535Z,22.45
2022-12-11T09:06:26.544Z,21.80
2022-12-11T09:08:54.290Z,21.65
2022-12-11T09:11:28.931Z,23.65
2022-12-11T09:13:57.073Z,23.67
2022-12-11T09:16:27.306Z,22.83
2022-12-11T09:18:57.381Z,24.45
2022-12-11T09:21:28.775Z,24.33
2022-12-11T09:24:00.145Z,24.73
2022-12-11T09:26:30.016Z,22.63
2022-12-11T09:28:57.998Z,23.63
2022-12-11T09:31:31.749Z,21.90
2022-12-11T09:34:05.674Z,24.75
2022-12-11T09:36:33.246Z,24.40
2022-12-11T09:39:02.625Z,20.95
2022-12-11T09:41:44.507Z,20.13
2022-12-11T09:44:11.332Z,23.33
2022-12-11T09:46:40.707Z,23.17
2022-12-11T09:49:32.002Z,23.70
2022-12-11T09:52:35.902Z,25.17
2022-12-11T09:55:29.698Z,24.23
2022-12-11T09:58:24.941Z,23.83
2022-12-11T10:01:20.724Z,23.03
2022-12-11T10:04:05.868Z,19.95
2022-12-11T10:06:50.509Z,18.95
2022-12-11T10:09:34.601Z,19.63
2022-12-11T10:12:19.458Z,24.08
2022-12-11T10:15:19.744Z,24.53
2022-12-11T10:17:47.428Z,22.15
2022-12-11T10:20:28.853Z,20.98
2022-12-11T10:22:57.326Z,18.73
2022-12-11T10:25:35.299Z,21.17
2022-12-11T10:28:18.161Z,17.17
2022-12-11T10:31:02.527Z,17.60
2022-12-11T10:33:47.955Z,18.23
2022-12-11T10:36:27.708Z,18.65
2022-12-11T10:38:54.870Z,19.73
2022-12-11T10:41:31.829Z,21.77
2022-12-11T10:44:00.716Z,19.25
2022-12-11T10:46:29.927Z,21.05
2022-12-11T10:49:01.233Z,19.15
2022-12-11T10:51:31.108Z,20.20
2022-12-11T10:54:17.225Z,19.15
2022-12-11T10:56:48.719Z,18.45
2022-12-11T10:59:49.803Z,19.02
2022-12-11T11:02:41.547Z,17.45
2022-12-11T11:05:17.701Z,17.88
2022-12-11T11:07:44.701Z,18.48
2022-12-11T11:10:12.049Z,18.63
2022-12-11T11:12:56.496Z,15.88
2022-12-11T11:15:29.420Z,20.97
2022-12-11T11:18:04.348Z,19.38
2022-12-11T11:20:34.285Z,20.35
2022-12-11T11:23:11.655Z,20.33
2022-12-11T11:25:40.424Z,18.20
2022-12-11T11:28:22.326Z,18.05
2022-12-11T11:31:31.355Z,22.35
2022-12-11T11:34:05.373Z,19.85
2022-12-11T11:36:36.706Z,17.23
2022-12-11T11:39:27.761Z,23.45
2022-12-11T11:41:57.469Z,19.63
2022-12-11T11:45:05.484Z,20.48
2022-12-11T11:47:43.261Z,21.25
2022-12-11T11:50:22.130Z,22.10
2022-12-11T11:53:19.254Z,19.70
2022-12-11T11:56:04.300Z,19.80
2022-12-11T11:59:05.447Z,21.75
2022-12-11T12:01:33.118Z,22.73
2022-12-11T12:04:03.878Z,23.95
2022-12-11T12:06:56.838Z,26.27
2022-12-11T12:09:48.558Z,23.13
2022-12-11T12:15:26.964Z,24.27
2022-12-11T12:18:02.861Z,25.63
2022-12-11T12:21:08.776Z,25.52
2022-12-11T12:24:14.260Z,20.52
2022-12-11T12:26:54.044Z,22.98
2022-12-11T12:30:01.202Z,25.05
2022-12-11T12:32:53.389Z,27.02
2022-12-11T12:35:27.279Z,21.88
2022-12-11T12:38:25.522Z,23.23
2022-12-11T12:41:30.913Z,20.30
2022-12-11T12:44:19.114Z,19.67
2022-12-11T12:47:04.474Z,18.90
2022-12-11T12:49:49.270Z,18.13
2022-12-11T12:52:34.813Z,20.48
2022-12-11T12:55:24.501Z,17.52
2022-12-11T12:58:00.873Z,21.70
2022-12-11T13:00:39.043Z,21.00
2022-12-11T13:03:25.130Z,19.73
2022-12-11T13:06:10.998Z,17.98
2022-12-11T13:08:51.802Z,20.52
2022-12-11T13:11:30.580Z,23.45
2022-12-11T13:14:28.335Z,21.77
2022-12-11T13:17:28.670Z,22.95
2022-12-11T13:20:21.976Z,21.65
2022-12-11T13:23:07.887Z,23.17
2022-12-11T13:25:56.413Z,20.65
2022-12-11T13:28:23.975Z,22.42
2022-12-11T13:31:16.863Z,22.92
2022-12-11T13:33:53.494Z,21.00
2022-12-11T13:36:25.065Z,20.77
2022-12-11T13:39:19.048Z,18.58
2022-12-11T13:41:56.662Z,20.05
2022-12-11T13:44:31.038Z,20.35
2022-12-11T13:47:03.791Z,19.00
2022-12-11T13:49:37.445Z,22.20
2022-12-11T13:52:05.944Z,21.98
2022-12-11T13:54:38.998Z,20.75
2022-12-11T13:57:08.778Z,21.30
2022-12-11T13:59:47.000Z,23.98
2022-12-11T14:02:23.841Z,23.83
2022-12-11T14:04:57.778Z,22.48
2022-12-11T14:07:33.375Z,22.70
2022-12-11T14:10:30.285Z,25.52
2022-12-11T14:13:06.955Z,26.02
2022-12-11T14:15:36.686Z,23.20
2022-12-11T14:18:05.945Z,26.17
2022-12-11T14:20:34.706Z,27.58
2022-12-11T14:23:18.581Z,25.13
2022-12-11T14:25:57.086Z,26.20
2022-12-11T14:28:27.771Z,27.35
2022-12-11T14:31:00.747Z,29.05
2022-12-11T14:33:41.546Z,30.30
2022-12-11T14:36:09.883Z,31.45
2022-12-11T14:38:49.325Z,27.38
2022-12-11T14:41:53.120Z,27.98
2022-12-11T14:44:25.590Z,27.20
2022-12-11T14:47:03.775Z,25.42
2022-12-11T14:49:58.718Z,23.08
2022-12-11T14:52:43.370Z,28.40
2022-12-11T14:55:26.642Z,24.85
2022-12-11T14:58:04.130Z,25.67
2022-12-11T15:00:37.059Z,22.63
2022-12-11T15:03:30.469Z,24.60
2022-12-11T15:05:58.360Z,25.60
2022-12-11T15:08:36.912Z,20.35
2022-12-11T15:11:12.048Z,23.65
2022-12-11T15:14:09.879Z,24.00
2022-12-11T15:16:41.724Z,21.58
2022-12-11T15:19:23.394Z,23.63
2022-12-11T15:21:51.349Z,23.88
2022-12-11T15:24:41.049Z,23.95
2022-12-11T15:27:26.270Z,23.02
2022-12-11T15:29:53.643Z,21.50
2022-12-11T15:32:21.773Z,23.65
2022-12-11T15:34:59.428Z,24.95
2022-12-11T15:37:28.507Z,24.00
2022-12-11T15:39:59.141Z,23.83
2022-12-11T15:42:41.999Z,23.75
2022-12-11T15:45:20.389Z,24.10
2022-12-11T15:47:48.906Z,24.45
2022-12-11T15:50:24.116Z,23.55
2022-12-11T15:52:53.668Z,25.42
2022-12-11T15:55:22.983Z,24.27
2022-12-11T15:58:05.901Z,27.17
2022-12-11T16:00:32.963Z,26.80
2022-12-11T16:03:00.004Z,32.72
2022-12-11T16:05:27.665Z,28.50
2022-12-11T16:07:59.870Z,33.78
2022-12-11T16:10:27.173Z,30.52
2022-12-11T16:12:59.239Z,29.48
2022-12-11T16:15:27.363Z,32.08
2022-12-11T16:18:07.944Z,31.05
2022-12-11T16:20:37.961Z,30.30
2022-12-11T16:23:05.381Z,29.85
2022-12-11T16:25:33.359Z,33.53
2022-12-11T16:28:01.601Z,30.50
2022-12-11T16:30:29.744Z,38.95
2022-12-11T16:32:56.840Z,30.50
2022-12-11T16:35:23.754Z,27.10
2022-12-11T16:37:53.273Z,30.20
2022-12-11T16:40:21.743Z,33.60
2022-12-11T16:42:49.431Z,35.50
2022-12-11T16:45:23.238Z,30.85
2022-12-11T16:47:50.258Z,32.22
2022-12-11T16:50:18.441Z,27.33
2022-12-11T16:52:45.977Z,34.50
2022-12-11T16:55:13.947Z,30.63
2022-12-11T16:57:41.752Z,33.58
2022-12-11T17:00:14.207Z,29.02
2022-12-11T17:02:41.675Z,35.25
2022-12-11T17:05:09.048Z,29.63
2022-12-11T17:07:36.154Z,29.90
2022-12-11T17:10:04.043Z,29.95
2022-12-11T17:12:31.201Z,29.15
2022-12-11T17:14:58.268Z,28.25
2022-12-11T17:17:25.745Z,28.65
2022-12-11T17:19:52.870Z,27.08
2022-12-11T17:22:19.813Z,28.98
2022-12-11T17:24:46.906Z,31.33
2022-12-11T17:27:14.192Z,32.08
2022-12-11T17:29:41.218Z,31.48
2022-12-11T17:32:11.573Z,33.70
2022-12-11T17:34:38.878Z,29.52
2022-12-11T17:37:06.436Z,29.92
2022-12-11T17:39:33.831Z,32.97
2022-12-11T17:42:01.153Z,27.98
2022-12-11T17:44:30.543Z,33.35
2022-12-11T17:47:04.702Z,30.88
2022-12-11T17:49:34.613Z,28.23
2022-12-11T17:52:01.653Z,25.55
2022-12-11T17:54:28.678Z,28.48
2022-12-11T17:56:55.733Z,28.75
2022-12-11T17:59:22.807Z,31.90
2022-12-11T18:01:50.066Z,28.10
2022-12-11T18:04:17.102Z,32.88
2022-12-11T18:06:44.003Z,31.48
2022-12-11T18:09:11.308Z,31.05
2022-12-11T18:11:38.207Z,25.40
2022-12-11T18:14:05.390Z,30.17
2022-12-11T18:16:38.028Z,29.13
2022-12-11T18:19:06.144Z,32.17
2022-12-11T18:21:40.375Z,27.88
2022-12-11T18:24:09.207Z,34.55
2022-12-11T18:26:37.550Z,28.08
2022-12-11T18:29:05.349Z,26.67
2022-12-11T18:31:34.482Z,37.03
2022-12-11T18:34:06.262Z,31.33
2022-12-11T18:36:35.172Z,34.42
2022-12-11T18:39:03.279Z,31.58
2022-12-11T18:41:30.557Z,31.05
2022-12-11T18:44:01.999Z,31.25
2022-12-11T18:46:32.588Z,30.00
2022-12-11T18:48:59.804Z,31.58
2022-12-11T18:51:26.890Z,27.55
2022-12-11T18:53:54.059Z,27.58
2022-12-11T18:56:22.848Z,32.63
2022-12-11T18:58:51.127Z,29.08
2022-12-11T19:01:23.144Z,31.60
2022-12-11T19:03:51.547Z,32.08
2022-12-11T19:06:24.544Z,32.22
2022-12-11T19:08:52.592Z,33.55
2022-12-11T19:11:24.687Z,37.58
2022-12-11T19:13:53.928Z,32.92
2022-12-11T19:16:33.668Z,34.40
2022-12-11T19:19:05.824Z,32.05
2022-12-11T19:21:35.577Z,31.50
2022-12-11T19:24:02.844Z,30.83
2022-12-11T19:26:31.657Z,34.65
2022-12-11T19:29:00.383Z,35.03
2022-12-11T19:31:31.628Z,34.95
2022-12-11T19:34:00.149Z,35.70
2022-12-11T19:36:30.762Z,35.45
2022-12-11T19:39:01.925Z,34.40
2022-12-11T19:41:31.009Z,35.00
2022-12-11T19:43:59.701Z,38.80
2022-12-11T19:46:29.021Z,34.75
2022-12-11T19:48:59.193Z,36.17
2022-12-11T19:51:34.849Z,40.47
2022-12-11T19:54:03.261Z,36.75
2022-12-11T19:56:31.791Z,33.10
2022-12-11T19:59:00.829Z,37.42
2022-12-11T20:01:31.908Z,41.20
2022-12-11T20:04:04.115Z,35.03
2022-12-11T20:06:37.375Z,39.45
2022-12-11T20:09:07.758Z,39.08
2022-12-11T20:11:35.029Z,34.50
2022-12-11T20:14:04.006Z,36.92
2022-12-11T20:17:01.599Z,34.08
2022-12-11T20:19:18.914Z,38.75
2022-12-11T20:21:46.171Z,38.80
2022-12-11T20:24:13.506Z,39.15
2022-12-11T20:26:41.505Z,36.67
2022-12-11T20:29:09.050Z,36.80
2022-12-11T20:31:37.402Z,41.95
2022-12-11T20:34:05.843Z,32.25
2022-12-11T20:36:34.154Z,38.33
2022-12-11T20:39:01.568Z,36.83
2022-12-11T20:41:29.484Z,37.67
2022-12-11T20:43:57.100Z,34.80
2022-12-11T20:46:27.395Z,37.70
2022-12-11T20:48:58.822Z,34.67
2022-12-11T20:51:26.778Z,36.03
2022-12-11T20:53:59.234Z,36.20
2022-12-11T20:56:30.515Z,40.50
2022-12-11T20:58:59.850Z,36.42
2022-12-11T21:01:31.196Z,39.70
2022-12-11T21:03:59.834Z,38.33
2022-12-11T21:06:38.778Z,41.53
2022-12-11T21:09:19.875Z,37.35
2022-12-11T21:11:47.158Z,38.88
2022-12-11T21:14:16.211Z,34.70
2022-12-11T21:16:43.829Z,36.63
2022-12-11T21:19:20.116Z,39.28
2022-12-11T21:21:47.810Z,33.35
2022-12-11T21:24:26.473Z,36.08
2022-12-11T21:26:58.230Z,41.00
2022-12-11T21:29:29.352Z,40.47
2022-12-11T21:31:57.230Z,42.28
2022-12-11T21:34:25.765Z,41.35
2022-12-11T21:36:56.660Z,40.50
2022-12-11T21:39:25.596Z,43.67
2022-12-11T21:41:53.140Z,35.28
2022-12-11T21:47:06.981Z,38.65
2022-12-11T21:49:33.801Z,41.45
2022-12-11T21:52:00.730Z,43.83
2022-12-11T21:54:27.741Z,41.80
2022-12-11T21:56:54.617Z,40.97
2022-12-11T21:59:21.637Z,42.28
2022-12-11T22:01:48.588Z,39.05
2022-12-11T22:04:17.462Z,45.72
2022-12-11T22:06:47.105Z,46.28
2022-12-11T22:09:16.257Z,38.88
2022-12-11T22:11:45.702Z,42.95
2022-12-11T22:14:15.962Z,41.80
2022-12-11T22:16:44.298Z,43.75
2022-12-11T22:19:11.998Z,37.10
2022-12-11T22:21:39.458Z,43.67
2022-12-11T22:24:07.275Z,44.22
2022-12-11T22:26:34.160Z,37.33
2022-12-11T22:29:01.030Z,35.13
2022-12-11T22:31:28.140Z,42.03
2022-12-11T22:33:55.998Z,39.35
2022-12-11T22:36:26.474Z,41.05
2022-12-11T22:38:53.815Z,47.85
2022-12-11T22:41:28.452Z,43.83
2022-12-11T22:43:56.883Z,37.42
2022-12-11T22:46:28.005Z,43.10
2022-12-11T22:48:55.042Z,38.33
2022-12-11T22:51:22.798Z,45.03
2022-12-11T22:53:49.896Z,43.50
2022-12-11T22:56:17.199Z,45.00
2022-12-11T22:58:44.356Z,45.05
2022-12-11T23:01:16.250Z,43.47
2022-12-11T23:03:43.669Z,47.75
2022-12-11T23:06:13.996Z,41.63
2022-12-11T23:08:42.296Z,42.55
2022-12-11T23:11:14.651Z,46.30
2022-12-11T23:13:42.036Z,50.40
2022-12-11T23:16:11.059Z,43.92
2022-12-11T23:18:39.389Z,46.85
2022-12-11T23:21:07.916Z,44.55
2022-12-11T23:23:35.152Z,49.42
2022-12-11T23:26:02.437Z,52.72
2022-12-11T23:28:29.373Z,48.15
2022-12-11T23:30:56.277Z,49.30
2022-12-11T23:33:23.731Z,46.50
2022-12-11T23:35:50.659Z,43.80
2022-12-11T23:38:18.032Z,47.58
2022-12-11T23:40:44.976Z,48.30
2022-12-11T23:43:12.008Z,42.20
2022-12-11T23:45:38.945Z,42.95
2022-12-11T23:48:05.894Z,43.08
2022-12-11T23:50:32.928Z,46.28
2022-12-11T23:53:00.449Z,47.25
2022-12-11T23:55:27.546Z,52.38
2022-12-11T23:57:55.672Z,44.38
